Time;durP1;ratioP1;P1;durP2;ratioP2;P2;SDS_P1;SDS_P2;PMS_P1;PMS_P2;Temp;Humidity;BMP_temperature;BMP_pressure;BME280_temperature;BME280_humidity;BME280_pressure;Samples;Min_cycle;Max_cycle;Signal;HPM_P1;HPM_P2
2022/12/14 00:01:15;;;;;;;31.73;17.67;;;;;;;-1.13;100.00;73256.59;5093756;28;20197;-65
2022/12/14 00:03:42;;;;;;;36.83;17.03;;;;;;;-0.93;100.00;73602.56;5094074;28;20254;-65
2022/12/14 00:06:11;;;;;;;27.50;16.97;;;;;;;-0.79;100.00;73620.41;5093638;28;20199;-65
2022/12/14 00:08:38;;;;;;;27.43;17.47;;;;;;;-1.05;100.00;74228.38;5093841;28;20272;-65
2022/12/14 00:11:06;;;;;;;22.57;15.83;;;;;;;-0.96;100.00;76164.25;5093604;28;20180;-66
2022/12/14 00:13:34;;;;;;;28.23;17.63;;;;;;;-0.57;100.00;74610.28;5093702;28;20613;-65
2022/12/14 00:16:05;;;;;;;26.77;18.03;;;;;;;-0.67;100.00;76523.44;5093769;28;20635;-66
2022/12/14 00:18:32;;;;;;;22.73;15.93;;;;;;;-0.47;100.00;81369.16;5093587;28;20188;-66
2022/12/14 00:21:04;;;;;;;22.33;15.43;;;;;;;-0.38;100.00;90397.66;5093478;28;20188;-65
2022/12/14 00:23:31;;;;;;;22.73;16.57;;;;;;;-0.37;100.00;99440.28;5093688;28;20600;-66
2022/12/14 00:25:58;;;;;;;23.97;14.60;;;;;;;-0.35;100.00;109252.50;5093172;28;20228;-67
2022/12/14 00:28:26;;;;;;;26.43;14.90;;;;;;;-0.24;100.00;122307.66;5093619;28;20203;-65
2022/12/14 00:30:57;;;;;;;20.93;14.83;;;;;;;-0.25;100.00;138984.44;5093225;28;20188;-65
2022/12/14 00:33:24;;;;;;;18.93;15.53;;;;;;;-0.20;100.00;146016.66;5093454;28;20612;-64
2022/12/14 00:35:51;;;;;;;18.30;14.03;;;;;;;-0.14;100.00;146032.97;5093383;28;20203;-67
2022/12/14 00:38:18;;;;;;;21.53;13.70;;;;;;;-0.15;100.00;146029.19;5093008;28;20188;-65
2022/12/14 00:40:44;;;;;;;29.07;15.43;;;;;;;-0.25;100.00;146005.38;5092529;28;20619;-64
2022/12/14 00:43:11;;;;;;;20.03;14.87;;;;;;;-0.44;100.00;145956.56;5092974;28;20199;-67
2022/12/14 00:45:39;;;;;;;17.63;13.90;;;;;;;-0.55;100.00;145391.69;5093241;28;20256;-65
2022/12/14 00:48:06;;;;;;;22.97;14.73;;;;;;;-0.73;100.00;145225.38;5093157;28;20184;-65
2022/12/14 00:50:33;;;;;;;19.80;14.77;;;;;;;-0.68;100.00;132755.00;5091540;28;20180;-65
2022/12/14 00:53:00;;;;;;;17.97;14.73;;;;;;;-0.73;100.00;126680.31;5092546;28;20217;-65
2022/12/14 00:55:27;;;;;;;23.37;14.70;;;;;;;-1.00;100.00;114917.53;5093089;28;20215;-65
2022/12/14 00:57:54;;;;;;;21.10;14.17;;;;;;;-1.09;100.00;102871.69;5092742;28;20191;-65
2022/12/14 01:00:21;;;;;;;26.50;15.57;;;;;;;-1.04;100.00;100296.34;5092942;28;20195;-66
2022/12/14 01:02:49;;;;;;;28.37;16.40;;;;;;;-0.85;100.00;100005.19;5092498;28;20187;-65
2022/12/14 01:05:16;;;;;;;29.70;16.67;;;;;;;-0.74;100.00;98730.88;5092598;28;20279;-67
2022/12/14 01:07:42;;;;;;;27.40;16.67;;;;;;;-0.83;100.00;96779.09;5092453;28;20239;-65
2022/12/14 01:10:09;;;;;;;23.53;16.13;;;;;;;-0.74;100.00;96794.09;5092806;28;20195;-66
2022/12/14 01:12:36;;;;;;;24.23;15.40;;;;;;;-0.67;100.00;97451.59;5092308;28;20204;-65
2022/12/14 01:15:06;;;;;;;24.57;15.93;;;;;;;-0.65;100.00;104566.41;5092331;28;20184;-67
2022/12/14 01:17:33;;;;;;;23.77;16.90;;;;;;;-0.62;100.00;109192.63;5092645;28;20184;-65
2022/12/14 01:20:03;;;;;;;23.67;16.00;;;;;;;-0.62;100.00;118085.25;5092575;28;20573;-65
2022/12/14 01:22:30;;;;;;;30.37;16.00;;;;;;;-0.72;100.00;124211.69;5092499;28;20181;-65
2022/12/14 01:24:58;;;;;;;27.27;15.93;;;;;;;-0.77;100.00;130896.69;5092167;28;20226;-65
2022/12/14 01:27:25;;;;;;;29.90;15.53;;;;;;;-0.89;100.00;123265.69;5092214;28;20180;-65
2022/12/14 01:29:52;;;;;;;26.83;15.67;;;;;;;-1.01;100.00;111375.41;5092159;28;20184;-65
2022/12/14 01:32:28;;;;;;;23.57;15.67;;;;;;;-1.10;100.00;108288.09;5092152;28;20211;-67
2022/12/14 01:34:55;;;;;;;21.00;14.77;;;;;;;-1.10;100.00;103194.03;5092437;28;20210;-65
2022/12/14 01:37:23;;;;;;;23.17;14.73;;;;;;;-1.24;100.00;102292.31;5092103;28;20188;-65
2022/12/14 01:39:50;;;;;;;22.97;15.10;;;;;;;-1.10;100.00;101577.28;5092068;28;20184;-67
2022/12/14 01:42:19;;;;;;;21.17;15.17;;;;;;;-1.25;100.00;103543.66;5091266;28;20653;-66
2022/12/14 01:44:53;;;;;;;19.73;15.53;;;;;;;-1.91;100.00;101340.06;5092091;28;20271;-67
2022/12/14 01:47:25;;;;;;;23.17;15.63;;;;;;;-1.56;100.00;104339.91;5092354;28;20180;-66
2022/12/14 01:50:02;;;;;;;24.73;14.77;;;;;;;-1.38;100.00;101151.66;5091834;28;20199;-65
2022/12/14 01:52:36;;;;;;;25.93;15.73;;;;;;;-1.17;100.00;97577.84;5091971;28;20208;-67
2022/12/14 01:55:07;;;;;;;25.37;15.67;;;;;;;-1.21;100.00;93989.97;5092704;28;20195;-65
2022/12/14 01:57:39;;;;;;;23.60;15.43;;;;;;;-1.33;100.00;94680.63;5092361;28;20188;-66
2022/12/14 02:00:09;;;;;;;24.37;15.60;;;;;;;-1.33;100.00;94615.97;5092441;28;20184;-66
2022/12/14 02:02:38;;;;;;;25.73;14.70;;;;;;;-1.43;100.00;97663.53;5092417;28;20646;-65
2022/12/14 02:05:09;;;;;;;21.93;14.43;;;;;;;-1.65;100.00;98682.19;5092423;28;20184;-65
2022/12/14 02:07:39;;;;;;;25.87;14.97;;;;;;;-1.40;100.00;97716.44;5092243;28;20567;-65
2022/12/14 02:10:08;;;;;;;23.40;14.13;;;;;;;-1.42;100.00;100861.31;5092158;28;20591;-65
2022/12/14 02:12:39;;;;;;;27.03;14.97;;;;;;;-1.60;100.00;100126.59;5091960;28;20566;-66
2022/12/14 02:15:06;;;;;;;25.03;15.83;;;;;;;-1.50;100.00;95581.13;5091906;28;20251;-66
2022/12/14 02:17:33;;;;;;;26.13;17.00;;;;;;;-1.40;100.00;94154.66;5091843;28;20184;-65
2022/12/14 02:20:03;;;;;;;33.33;17.43;;;;;;;-1.31;100.00;93637.19;5091480;28;20184;-65
2022/12/14 02:23:02;;;;;;;24.17;16.13;;;;;;;-1.40;100.00;90259.56;5091525;28;20180;-66
2022/12/14 02:26:10;;;;;;;28.43;16.60;;;;;;;-1.36;100.00;87554.19;5091405;28;20253;-64
2022/12/14 02:29:23;;;;;;;27.93;14.17;;;;;;;-1.67;100.00;90148.91;5091556;28;20187;-64
2022/12/14 02:31:57;;;;;;;25.20;13.97;;;;;;;-1.74;100.00;84370.53;5085454;28;20655;-65
2022/12/14 02:34:35;;;;;;;26.00;14.60;;;;;;;-1.56;100.00;83966.88;5091600;28;20208;-65
2022/12/14 02:37:15;;;;;;;23.30;14.20;;;;;;;-1.57;100.00;83125.53;5091930;28;20199;-65
2022/12/14 02:39:55;;;;;;;22.83;14.93;;;;;;;-1.91;100.00;79650.75;5091567;28;20530;-66
2022/12/14 02:42:32;;;;;;;23.30;15.60;;;;;;;-1.89;100.00;76366.56;5091611;28;20226;-66
2022/12/14 02:45:07;;;;;;;22.33;15.30;;;;;;;-2.04;100.00;76669.53;5091254;28;20195;-65
2022/12/14 02:47:39;;;;;;;21.30;15.43;;;;;;;-2.06;100.00;76194.00;5091494;28;20188;-65
2022/12/14 02:50:11;;;;;;;25.17;14.77;;;;;;;-2.17;100.00;77247.06;5091249;28;20219;-66
2022/12/14 02:52:46;;;;;;;23.90;14.67;;;;;;;-2.32;100.00;78071.47;5091245;28;20188;-65
2022/12/14 02:55:18;;;;;;;31.90;14.80;;;;;;;-2.07;100.00;74333.66;5091732;28;20188;-66
2022/12/14 02:57:52;;;;;;;27.60;14.43;;;;;;;-1.95;100.00;72014.03;5091216;28;20295;-65
2022/12/14 03:00:21;;;;;;;19.47;14.63;;;;;;;-2.07;100.00;72214.56;5074178;28;20638;-65
2022/12/14 03:02:49;;;;;;;28.70;14.97;;;;;;;-1.85;100.00;73581.66;5092532;28;20184;-66
2022/12/14 03:05:16;;;;;;;27.50;15.20;;;;;;;-1.72;100.00;75146.94;5095516;28;20199;-66
2022/12/14 03:07:47;;;;;;;35.70;17.33;;;;;;;-1.76;100.00;76388.09;5095229;28;20195;-65
2022/12/14 03:10:24;;;;;;;31.00;18.23;;;;;;;-1.63;100.00;74015.03;5094908;28;20230;-65
2022/12/14 03:12:56;;;;;;;31.60;18.23;;;;;;;-1.46;100.00;73240.41;5094722;28;20204;-65
2022/12/14 03:15:28;;;;;;;33.27;19.43;;;;;;;-1.49;100.00;73742.06;5095182;28;20188;-65
2022/12/14 03:18:01;;;;;;;34.43;19.47;;;;;;;-1.51;100.00;72336.59;5094764;28;20188;-65
2022/12/14 03:20:32;;;;;;;34.23;18.43;;;;;;;-1.42;100.00;71651.88;5094761;28;20184;-65
2022/12/14 03:23:03;;;;;;;35.77;19.17;;;;;;;-1.32;100.00;69868.66;5095002;28;20196;-65
2022/12/14 03:25:38;;;;;;;38.13;20.20;;;;;;;-1.32;100.00;70535.66;5094582;28;20228;-66
2022/12/14 03:28:12;;;;;;;29.13;18.07;;;;;;;-1.19;100.00;69051.72;5094554;28;20187;-67
2022/12/14 03:30:43;;;;;;;33.87;18.67;;;;;;;-1.10;100.00;70965.97;5094880;28;20219;-66
2022/12/14 03:33:14;;;;;;;32.97;18.00;;;;;;;-1.25;100.00;74133.22;5094689;28;20284;-65
2022/12/14 03:35:46;;;;;;;33.33;17.23;;;;;;;-1.31;100.00;79180.41;5094761;28;20658;-66
2022/12/14 03:38:22;;;;;;;36.83;18.00;;;;;;;-1.44;100.00;82636.63;5094409;28;20267;-65
2022/12/14 03:40:59;;;;;;;29.83;17.00;;;;;;;-1.68;100.00;85230.06;5094561;28;20200;-65
2022/12/14 03:43:32;;;;;;;37.43;18.83;;;;;;;-1.64;100.00;82892.25;5094275;28;20184;-65
2022/12/14 03:46:08;;;;;;;37.20;17.53;;;;;;;-1.72;100.00;82784.78;5094397;28;20659;-66
2022/12/14 03:48:40;;;;;;;31.90;17.37;;;;;;;-1.69;100.00;79352.78;5094432;28;20591;-66
2022/12/14 03:51:14;;;;;;;31.63;17.80;;;;;;;-1.67;100.00;76462.59;5094381;28;20578;-66
2022/12/14 03:53:48;;;;;;;29.67;16.67;;;;;;;-1.52;100.00;72972.59;5094250;28;20616;-66
2022/12/14 03:56:22;;;;;;;36.23;19.43;;;;;;;-1.43;100.00;71193.56;5094091;28;20203;-66
2022/12/14 03:58:55;;;;;;;33.73;18.47;;;;;;;-1.25;100.00;72488.06;5093992;28;20192;-66
2022/12/14 04:01:33;;;;;;;36.73;18.70;;;;;;;-1.01;100.00;71734.72;5094271;28;20634;-66
2022/12/14 04:04:07;;;;;;;33.33;18.73;;;;;;;-0.98;100.00;72244.09;5093927;28;20180;-64
2022/12/14 04:06:41;;;;;;;42.10;19.43;;;;;;;-0.76;100.00;72264.13;5094227;28;20620;-65
2022/12/14 04:09:23;;;;;;;51.70;21.03;;;;;;;-0.63;100.00;72314.84;5093908;28;20195;-65
2022/12/14 04:20:24;;;;;;;50.50;24.93;;;;;;;-0.52;100.00;79528.94;5093761;28;20579;-65
2022/12/14 04:22:55;;;;;;;50.23;24.67;;;;;;;-0.63;100.00;75992.06;5093879;28;20598;-65
2022/12/14 04:31:00;;;;;;;59.17;21.40;;;;;;;-0.27;100.00;79773.56;5093078;28;20198;-66
2022/12/14 04:33:48;;;;;;;42.83;22.67;;;;;;;-0.29;100.00;81016.81;5093438;28;20208;-65
2022/12/14 04:36:23;;;;;;;40.87;22.47;;;;;;;-0.76;100.00;81963.72;5093684;28;20192;-65
2022/12/14 04:38:56;;;;;;;34.33;19.70;;;;;;;-0.39;100.00;82254.16;5093224;28;20188;-66
2022/12/14 04:41:28;;;;;;;35.43;20.17;;;;;;;-0.19;100.00;81488.22;5093447;28;20192;-66
2022/12/14 04:43:59;;;;;;;35.27;20.67;;;;;;;-0.21;100.00;82939.09;5093107;28;20184;-65
2022/12/14 04:46:29;;;;;;;36.10;19.63;;;;;;;-0.23;100.00;90081.63;5093745;28;20180;-65
2022/12/14 04:49:02;;;;;;;64.67;23.77;;;;;;;-0.02;100.00;95175.47;5093011;28;20188;-65
2022/12/14 04:51:33;;;;;;;59.47;23.97;;;;;;;-0.08;100.00;100199.16;5093097;28;20192;-67
2022/12/14 04:54:07;;;;;;;42.73;21.63;;;;;;;-0.18;100.00;98644.19;5093203;28;20223;-65
2022/12/14 04:56:40;;;;;;;37.17;20.77;;;;;;;-0.12;100.00;100129.97;5093316;28;20551;-65
2022/12/14 04:59:07;;;;;;;45.77;20.93;;;;;;;-0.11;100.00;103691.03;5093140;28;20267;-65
2022/12/14 05:01:45;;;;;;;42.43;20.53;;;;;;;-0.21;100.00;104968.53;5092968;28;20195;-65
2022/12/14 05:04:23;;;;;;;38.57;19.43;;;;;;;-0.21;100.00;105095.03;5092788;28;20180;-65
2022/12/14 05:07:02;;;;;;;39.93;19.57;;;;;;;0.11;100.00;103082.41;5092752;28;20187;-67
2022/12/14 05:09:32;;;;;;;30.47;18.83;;;;;;;0.13;100.00;106068.03;5092652;28;20257;-65
2022/12/14 05:12:05;;;;;;;31.50;18.70;;;;;;;0.10;100.00;114356.00;5092532;28;20196;-65
2022/12/14 05:14:37;;;;;;;39.60;20.57;;;;;;;0.14;100.00;127087.56;5092451;28;20208;-65
2022/12/14 05:17:06;;;;;;;30.33;18.57;;;;;;;-0.04;100.00;137159.19;5092388;28;20195;-67
2022/12/14 05:19:34;;;;;;;36.93;17.83;;;;;;;-0.23;100.00;129128.56;5092658;28;20187;-66
2022/12/14 05:22:06;;;;;;;38.03;19.57;;;;;;;-0.10;100.00;126919.22;5092234;28;20188;-67
2022/12/14 05:24:32;;;;;;;33.17;18.73;;;;;;;-0.18;100.00;104326.19;5092428;28;20635;-66
2022/12/14 05:26:59;;;;;;;40.13;20.30;;;;;;;-0.03;100.00;100469.00;5051812;28;20235;-67
2022/12/14 05:29:26;;;;;;;40.27;21.17;;;;;;;-0.12;100.00;101423.25;5052386;28;20217;-67
2022/12/14 05:31:53;;;;;;;45.67;20.93;;;;;;;0.10;100.00;102756.78;5052485;28;20552;-66
2022/12/14 05:34:20;;;;;;;42.10;20.50;;;;;;;0.37;100.00;105073.19;5052300;28;20213;-66
2022/12/14 05:36:48;;;;;;;45.93;23.43;;;;;;;0.46;100.00;111254.75;5051890;28;20667;-66
2022/12/14 05:39:16;;;;;;;53.60;22.63;;;;;;;0.40;100.00;114452.03;5051865;28;20185;-66
2022/12/14 05:41:43;;;;;;;51.87;22.63;;;;;;;0.47;100.00;115366.06;5051768;28;20185;-67
2022/12/14 05:44:10;;;;;;;44.77;22.50;;;;;;;0.72;100.00;120414.28;5051753;28;20208;-67
2022/12/14 05:46:37;;;;;;;39.23;22.67;;;;;;;0.85;100.00;124279.94;5051714;28;20190;-65
2022/12/14 05:49:04;;;;;;;48.17;23.00;;;;;;;0.98;100.00;127765.09;5051625;28;20191;-66
2022/12/14 05:51:30;;;;;;;54.87;24.13;;;;;;;1.02;100.00;133084.41;5052251;28;20189;-67
2022/12/14 05:53:59;;;;;;;86.63;27.03;;;;;;;1.02;100.00;137466.59;5051600;28;20225;-66
2022/12/14 05:56:26;;;;;;;67.17;24.17;;;;;;;0.80;100.00;141162.81;5052139;28;20190;-67
2022/12/14 05:58:53;;;;;;;54.40;22.60;;;;;;;1.00;100.00;145855.75;5051401;28;20185;-60
2022/12/14 06:01:20;;;;;;;56.63;22.10;;;;;;;0.71;100.00;141161.50;5051919;28;20653;-57
2022/12/14 06:03:47;;;;;;;54.63;21.83;;;;;;;0.78;100.00;138121.03;5051911;28;20181;-57
2022/12/14 06:06:15;;;;;;;35.63;19.20;;;;;;;0.88;100.00;137565.28;5051864;28;20181;-66
2022/12/14 06:08:43;;;;;;;52.53;21.50;;;;;;;0.92;100.00;146294.84;5050268;28;20189;-66
2022/12/14 06:11:13;;;;;;;61.03;21.23;;;;;;;1.05;100.00;146327.47;5051789;28;20610;-67
2022/12/14 06:13:42;;;;;;;49.90;21.67;;;;;;;1.29;100.00;146386.38;5051762;28;20558;-67
2022/12/14 06:16:10;;;;;;;59.70;21.97;;;;;;;1.41;100.00;146415.22;5051785;28;20190;-66
2022/12/14 06:18:41;;;;;;;63.47;25.63;;;;;;;1.43;100.00;146420.25;5051393;28;20185;-67
2022/12/14 06:21:08;;;;;;;75.60;22.57;;;;;;;1.42;100.00;146417.72;5051902;28;20181;-61
2022/12/14 06:23:36;;;;;;;56.90;21.00;;;;;;;1.35;100.00;146402.72;5051556;28;20533;-61
2022/12/14 06:26:03;;;;;;;62.80;20.07;;;;;;;1.37;100.00;146407.69;5076033;28;20323;-62
2022/12/14 06:28:31;;;;;;;66.77;22.57;;;;;;;1.41;100.00;146416.47;5091367;28;20192;-61
2022/12/14 06:30:58;;;;;;;53.47;22.50;;;;;;;1.46;100.00;146429.03;5091286;28;20192;-62
2022/12/14 06:33:25;;;;;;;68.23;22.13;;;;;;;1.60;100.00;146462.91;5091173;28;20187;-62
2022/12/14 06:35:52;;;;;;;72.00;23.43;;;;;;;1.56;100.00;146452.88;5091319;28;20200;-62
2022/12/14 06:38:20;;;;;;;80.23;25.17;;;;;;;1.57;100.00;146456.59;5094413;28;20646;-61
2022/12/14 06:40:47;;;;;;;48.70;23.23;;;;;;;1.73;100.00;146495.53;5095360;28;20199;-62
2022/12/14 06:43:14;;;;;;;63.43;24.50;;;;;;;1.87;100.00;146530.63;5095256;28;20192;-62
2022/12/14 06:45:42;;;;;;;54.20;24.27;;;;;;;1.88;100.00;146533.13;5095461;28;20195;-62
2022/12/14 06:48:09;;;;;;;42.93;25.67;;;;;;;1.95;100.00;146549.47;5095525;28;20646;-61
2022/12/14 06:50:36;;;;;;;36.97;22.43;;;;;;;1.98;100.00;146558.25;5095126;28;20188;-61
2022/12/14 06:53:03;;;;;;;50.47;21.90;;;;;;;1.81;100.00;146515.59;5095442;28;20554;-61
2022/12/14 06:55:32;;;;;;;46.67;22.83;;;;;;;2.17;100.00;146604.66;5095294;28;20208;-61
2022/12/14 06:58:01;;;;;;;62.60;23.00;;;;;;;2.47;100.00;146680.00;5094155;28;20188;-61
2022/12/14 07:00:28;;;;;;;55.30;23.50;;;;;;;2.68;100.00;146732.72;5086357;28;20198;-61
2022/12/14 07:02:56;;;;;;;71.47;25.53;;;;;;;2.85;100.00;146774.16;5095032;28;20191;-61
2022/12/14 07:05:23;;;;;;;70.93;25.93;;;;;;;2.98;100.00;146806.81;5094553;28;20275;-60
2022/12/14 07:07:49;;;;;;;63.17;25.27;;;;;;;3.28;100.00;146879.66;5095002;28;20184;-61
2022/12/14 07:10:17;;;;;;;82.80;28.27;;;;;;;3.35;100.00;146897.28;5095014;28;20200;-62
2022/12/14 07:12:43;;;;;;;94.27;33.53;;;;;;;3.39;100.00;146907.34;5095104;28;20199;-61
2022/12/14 07:15:13;;;;;;;128.80;32.13;;;;;;;3.23;100.00;146869.63;5094602;28;20219;-61
2022/12/14 07:17:40;;;;;;;113.87;30.37;;;;;;;3.45;100.00;146923.66;5094995;28;20199;-62
2022/12/14 07:20:10;;;;;;;98.50;30.40;;;;;;;3.54;100.00;146945.00;5094376;28;20280;-61
2022/12/14 07:22:39;;;;;;;98.07;26.50;;;;;;;3.55;100.00;146947.53;5094569;28;20555;-63
2022/12/14 07:25:07;;;;;;;72.30;25.20;;;;;;;3.48;100.00;146929.97;5094342;28;20228;-61
2022/12/14 07:27:34;;;;;;;66.57;24.13;;;;;;;3.52;100.00;146941.22;5094613;28;20191;-62
2022/12/14 07:30:01;;;;;;;47.87;23.00;;;;;;;3.59;100.00;146957.59;5094586;28;20187;-61
2022/12/14 07:32:28;;;;;;;50.43;23.33;;;;;;;3.65;100.00;146972.66;5094163;28;20589;-63
2022/12/14 07:34:55;;;;;;;47.50;23.37;;;;;;;3.72;100.00;146989.00;5093993;28;20200;-62
2022/12/14 07:37:28;;;;;;;36.83;20.27;;;;;;;3.69;100.00;146983.97;5094046;28;20192;-61
2022/12/14 07:39:55;;;;;;;39.93;20.20;;;;;;;3.56;100.00;146951.31;5094176;28;20195;-61
2022/12/14 07:42:22;;;;;;;34.03;20.43;;;;;;;3.53;100.00;146943.75;5094210;28;20535;-61
2022/12/14 07:44:49;;;;;;;48.03;21.40;;;;;;;3.60;100.00;146960.13;5094237;28;20554;-62
2022/12/14 07:47:16;;;;;;;43.17;21.60;;;;;;;3.83;100.00;147016.63;5093748;28;20199;-62
2022/12/14 07:49:43;;;;;;;41.87;20.87;;;;;;;4.01;100.00;147063.16;5093421;28;20184;-62
2022/12/14 07:52:09;;;;;;;41.50;20.40;;;;;;;4.09;100.00;147083.28;5094132;28;20196;-62
2022/12/14 07:54:38;;;;;;;52.67;21.63;;;;;;;4.32;100.00;147138.63;5093671;28;20204;-63
2022/12/14 07:57:04;;;;;;;34.87;20.80;;;;;;;4.72;100.00;147239.22;5093893;28;20188;-62
2022/12/14 07:59:31;;;;;;;34.53;22.60;;;;;;;4.95;100.00;147295.84;5093687;28;20183;-62
2022/12/14 08:01:58;;;;;;;38.53;21.77;;;;;;;5.10;100.00;147333.56;5093102;28;20184;-60
2022/12/14 08:04:25;;;;;;;41.73;23.90;;;;;;;5.23;100.00;147365.03;5093681;28;20633;-63
2022/12/14 08:06:53;;;;;;;39.77;24.57;;;;;;;5.37;100.00;147400.28;5093607;28;20196;-63
2022/12/14 08:09:20;;;;;;;42.67;25.57;;;;;;;5.39;100.00;147405.28;5093755;28;20204;-63
2022/12/14 08:11:48;;;;;;;39.20;23.73;;;;;;;5.37;100.00;147400.28;5093532;28;20191;-62
2022/12/14 08:14:17;;;;;;;40.27;23.80;;;;;;;5.42;100.00;147414.13;5093387;28;20224;-63
2022/12/14 08:16:45;;;;;;;48.97;24.60;;;;;;;5.39;100.00;147405.28;5093048;28;20192;-62
2022/12/14 08:19:13;;;;;;;42.30;23.73;;;;;;;5.34;100.00;147394.00;5093089;28;20216;-63
2022/12/14 08:21:41;;;;;;;42.40;23.50;;;;;;;5.00;100.00;147308.44;5093612;28;20559;-63
2022/12/14 08:24:10;;;;;;;46.00;24.03;;;;;;;5.15;100.00;147346.16;5093132;28;20197;-62
2022/12/14 08:26:37;;;;;;;47.30;23.93;;;;;;;5.36;100.00;147399.00;5093352;28;20254;-62
2022/12/14 08:29:05;;;;;;;51.93;23.73;;;;;;;5.83;100.00;147516.09;5093307;28;20184;-62
2022/12/14 08:31:33;;;;;;;62.30;24.47;;;;;;;6.14;100.00;147592.97;5092436;28;20203;-62
2022/12/14 08:34:01;;;;;;;77.67;26.33;;;;;;;5.91;100.00;147536.28;5092733;28;20184;-62
2022/12/14 08:36:29;;;;;;;75.80;27.07;;;;;;;5.81;100.00;147509.81;5092863;28;20287;-63
2022/12/14 08:38:58;;;;;;;67.50;24.83;;;;;;;5.96;100.00;147548.88;5093372;28;20219;-62
2022/12/14 08:41:26;;;;;;;72.17;27.87;;;;;;;6.12;100.00;147587.91;5093049;28;20196;-62
2022/12/14 08:43:54;;;;;;;69.13;26.13;;;;;;;6.45;100.00;147669.75;5091499;28;20200;-62
2022/12/14 08:46:23;;;;;;;76.97;26.97;;;;;;;6.64;100.00;147717.66;5090921;28;20218;-62
2022/12/14 08:48:52;;;;;;;88.93;29.77;;;;;;;7.19;100.00;147853.75;5092824;28;20665;-62
2022/12/14 08:51:19;;;;;;;86.17;30.23;;;;;;;7.87;100.00;148022.72;5092538;28;20214;-62
2022/12/14 08:53:47;;;;;;;93.63;32.17;;;;;;;8.05;100.00;148069.41;5092695;28;20188;-62
2022/12/14 08:56:16;;;;;;;105.10;32.83;;;;;;;8.19;100.00;148104.69;5092371;28;20241;-62
2022/12/14 08:58:43;;;;;;;89.40;32.90;;;;;;;8.23;100.00;148113.56;5092249;28;20199;-62
2022/12/14 09:01:13;;;;;;;100.80;32.63;;;;;;;8.17;100.00;148099.69;5091741;28;20184;-63
2022/12/14 09:03:43;;;;;;;134.77;34.57;;;;;;;8.04;100.00;148065.59;5092211;28;20192;-62
2022/12/14 09:06:12;;;;;;;104.20;33.40;;;;;;;8.15;100.00;148094.59;5092757;28;20188;-61
2022/12/14 09:08:39;;;;;;;97.43;32.87;;;;;;;8.09;100.00;148078.22;5092638;28;20192;-61
2022/12/14 09:11:09;;;;;;;61.80;34.10;;;;;;;7.98;100.00;148050.44;5092376;28;20184;-62
2022/12/14 09:13:36;;;;;;;90.00;34.40;;;;;;;7.51;100.00;147933.22;5092205;28;20184;-61
2022/12/14 09:16:06;;;;;;;94.23;34.97;;;;;;;7.73;100.00;147988.66;5092677;28;20673;-62
2022/12/14 09:18:34;;;;;;;105.80;35.47;;;;;;;7.83;100.00;148013.91;5092459;28;20187;-62
2022/12/14 09:21:07;;;;;;;87.07;34.17;;;;;;;7.78;100.00;148001.28;5092277;28;20180;-62
2022/12/14 09:23:36;;;;;;;73.90;34.37;;;;;;;7.84;100.00;148016.44;5092332;28;20550;-60
2022/12/14 09:26:04;;;;;;;82.47;35.13;;;;;;;7.87;100.00;148022.72;5091885;28;20232;-62
2022/12/14 09:28:32;;;;;;;76.33;34.73;;;;;;;8.03;100.00;148064.34;5092172;28;20651;-63
2022/12/14 09:31:01;;;;;;;78.77;34.67;;;;;;;8.22;100.00;148112.31;5092004;28;20196;-63
2022/12/14 09:33:29;;;;;;;88.93;35.10;;;;;;;8.38;100.00;148150.19;5092535;28;20184;-62
2022/12/14 09:36:01;;;;;;;57.30;31.50;;;;;;;8.33;100.00;148138.81;5091893;28;20220;-62
2022/12/14 09:38:31;;;;;;;70.47;33.93;;;;;;;8.32;100.00;148136.28;5091763;28;20321;-61
2022/12/14 09:41:01;;;;;;;114.53;37.27;;;;;;;8.22;100.00;148112.31;5092086;28;20652;-61
2022/12/14 09:43:40;;;;;;;105.47;39.33;;;;;;;8.27;100.00;148124.88;5091993;28;20188;-62
2022/12/14 09:46:27;;;;;;;92.07;37.23;;;;;;;8.35;100.00;148142.63;5091533;28;20250;-61
2022/12/14 09:48:56;;;;;;;84.67;38.47;;;;;;;8.48;100.00;148176.69;5091962;28;20211;-63
2022/12/14 09:51:25;;;;;;;92.53;34.77;;;;;;;8.76;100.00;148244.81;5091747;28;20191;-63
2022/12/14 09:54:02;;;;;;;117.70;34.07;;;;;;;8.82;100.00;148260.00;5091894;28;20555;-63
2022/12/14 09:56:29;;;;;;;94.23;32.83;;;;;;;8.81;100.00;148258.72;5091985;28;20602;-63
2022/12/14 09:59:00;;;;;;;90.57;34.40;;;;;;;8.91;100.00;148283.94;5091880;28;20192;-63
2022/12/14 10:01:59;;;;;;;105.23;34.80;;;;;;;9.07;100.00;148323.09;5091779;28;20190;-62
2022/12/14 10:04:45;;;;;;;83.50;34.47;;;;;;;9.28;100.00;148374.88;5088751;28;20211;-62
2022/12/14 10:07:20;;;;;;;109.80;37.27;;;;;;;9.64;100.00;148467.03;5091923;28;20180;-62
2022/12/14 10:09:56;;;;;;;82.50;33.40;;;;;;;9.44;100.00;148415.25;5091431;28;20191;-62
2022/12/14 10:12:40;;;;;;;50.77;25.10;;;;;;;9.53;100.00;148439.28;5089249;28;20580;-62
2022/12/14 10:15:19;;;;;;;54.33;27.30;;;;;;;9.54;100.00;148440.53;5091123;28;20211;-63
2022/12/14 10:18:15;;;;;;;42.10;23.80;;;;;;;9.37;100.00;148398.88;5092159;28;20187;-64
2022/12/14 10:20:53;;;;;;;47.80;24.20;;;;;;;9.21;100.00;148358.44;5091739;28;20535;-62
2022/12/14 10:23:23;;;;;;;42.23;24.00;;;;;;;9.45;100.00;148419.06;5089995;28;20709;-63
2022/12/14 10:25:56;;;;;;;48.87;24.53;;;;;;;9.78;100.00;148499.88;5091291;28;20721;-62
2022/12/14 10:28:42;;;;;;;70.67;25.90;;;;;;;11.64;100.00;148965.16;5091346;28;20260;-63
2022/12/14 10:31:13;;;;;;;42.80;20.37;;;;;;;12.57;100.00;149198.06;5091252;28;20237;-63
2022/12/14 10:33:44;;;;;;;32.33;20.50;;;;;;;12.17;100.00;149099.34;5091296;28;20192;-62
2022/12/14 10:36:19;;;;;;;34.97;17.60;;;;;;;12.00;100.00;149056.31;5091098;28;20227;-62
2022/12/14 10:38:57;;;;;;;27.60;18.97;;;;;;;11.80;100.00;149005.66;5091080;28;20633;-63
2022/12/14 10:41:35;;;;;;;33.83;16.47;;;;;;;12.06;100.00;149071.47;5089794;28;20188;-62
2022/12/14 10:44:12;;;;;;;22.47;13.73;;;;;;;12.53;100.00;149187.94;5090891;28;20274;-62
2022/12/14 10:46:45;;;;;;;17.27;11.63;;;;;;;11.68;100.00;148975.25;5091294;28;20619;-62
2022/12/14 10:49:19;;;;;;;12.43;10.37;;;;;;;11.57;100.00;148947.44;5090906;28;20184;-62
2022/12/14 10:51:50;;;;;;;10.23;9.27;;;;;;;12.33;100.00;149139.84;5091120;28;20187;-62
2022/12/14 10:54:25;;;;;;;7.93;7.30;;;;;;;13.61;100.00;149460.31;5090858;28;20188;-62
2022/12/14 10:57:00;;;;;;;15.70;9.27;;;;;;;12.89;100.00;149277.84;5091506;28;20226;-64
2022/12/14 10:59:30;;;;;;;9.33;5.50;;;;;;;11.93;100.00;149038.56;5091422;28;20195;-63
2022/12/14 11:02:03;;;;;;;4.23;4.03;;;;;;;11.16;100.00;148846.25;5090908;28;20188;-62
2022/12/14 11:04:35;;;;;;;4.90;4.50;;;;;;;10.78;100.00;148750.13;5091219;28;20184;-61
2022/12/14 11:07:04;;;;;;;6.43;5.83;;;;;;;10.67;100.00;148722.34;5090631;28;20187;-62
2022/12/14 11:09:31;;;;;;;9.20;5.73;;;;;;;11.34;100.00;148891.78;5090884;28;20184;-63
2022/12/14 11:12:03;;;;;;;8.17;6.53;;;;;;;11.76;100.00;148996.81;5090575;28;20562;-63
2022/12/14 11:14:31;;;;;;;7.10;6.33;;;;;;;11.95;100.00;149042.38;5090917;28;20188;-62
2022/12/14 11:16:58;;;;;;;9.80;4.77;;;;;;;13.21;100.00;149360.22;5090526;28;20673;-62
2022/12/14 11:19:26;;;;;;;27.37;4.47;;;;;;;13.50;100.00;149432.41;5090847;28;20184;-62
2022/12/14 11:22:09;;;;;;;5.13;3.70;;;;;;;12.77;100.00;149248.72;5090798;28;20184;-61
2022/12/14 11:24:45;;;;;;;4.67;4.27;;;;;;;12.03;100.00;149063.91;5093088;28;20222;-62
2022/12/14 11:27:17;;;;;;;7.97;4.97;;;;;;;11.42;100.00;148912.00;5094259;28;20657;-64
2022/12/14 11:29:48;;;;;;;7.60;4.63;;;;;;;10.74;100.00;148740.03;5094374;28;20234;-62
2022/12/14 11:32:22;;;;;;;7.43;4.40;;;;;;;10.84;100.00;148765.31;5094030;28;20188;-63
2022/12/14 11:34:59;;;;;;;9.17;5.13;;;;;;;10.66;100.00;148719.81;5094278;28;20562;-62
2022/12/14 11:37:27;;;;;;;5.73;3.63;;;;;;;10.03;100.00;148564.31;5094201;28;20192;-62